Time;durP1;ratioP1;P1;durP2;ratioP2;P2;SDS_P1;SDS_P2;PMS_P1;PMS_P2;Temp;Humidity;BMP_temperature;BMP_pressure;BME280_temperature;BME280_humidity;BME280_pressure;Samples;Min_cycle;Max_cycle;Signal;HPM_P1;HPM_P2
2023/08/20 01:48:38;;;;;;;12.10;8.20;;;;;;;23.32;100.00;101032.09;106595;1251;61937;-84
2023/08/20 01:51:28;;;;;;;10.30;7.20;;;;;;;23.24;100.00;101029.32;106487;1257;62204;-84
2023/08/20 01:54:17;;;;;;;9.10;5.80;;;;;;;23.27;100.00;101028.67;106371;1256;76374;-86
2023/08/20 01:57:05;;;;;;;6.20;5.10;;;;;;;23.21;100.00;101028.88;106438;1251;68609;-85
2023/08/20 01:59:54;;;;;;;10.80;7.00;;;;;;;23.16;100.00;101026.34;106332;1251;73770;-88
2023/08/20 02:02:43;;;;;;;7.90;5.60;;;;;;;23.12;100.00;101022.30;106240;1252;62732;-84
2023/08/20 02:05:32;;;;;;;8.00;6.20;;;;;;;23.11;100.00;101019.20;106183;1254;60405;-84
2023/08/20 02:08:20;;;;;;;8.80;6.30;;;;;;;23.10;100.00;101021.72;106410;1254;73706;-88
2023/08/20 02:11:09;;;;;;;8.00;5.80;;;;;;;23.05;100.00;101026.17;106245;1257;68354;-89
2023/08/20 02:13:58;;;;;;;9.00;6.00;;;;;;;23.02;100.00;101028.39;106206;1254;74197;-84
2023/08/20 02:16:47;;;;;;;13.60;6.30;;;;;;;22.90;100.00;101033.64;106134;1254;60806;-88
2023/08/20 02:19:36;;;;;;;8.40;6.40;;;;;;;22.86;100.00;101029.73;106263;1257;61783;-84
2023/08/20 02:22:24;;;;;;;8.10;6.50;;;;;;;22.80;100.00;101035.92;106348;1256;74676;-84
2023/08/20 02:25:14;;;;;;;10.30;6.90;;;;;;;22.91;100.00;101040.42;106409;1251;71672;-90
2023/08/20 02:28:03;;;;;;;9.30;6.60;;;;;;;22.98;100.00;101040.34;106483;1257;74228;-88
2023/08/20 02:30:52;;;;;;;10.30;7.20;;;;;;;22.97;100.00;101040.95;106498;1253;65036;-85
2023/08/20 02:33:41;;;;;;;8.40;6.80;;;;;;;23.00;100.00;101048.79;106502;1257;61076;-88
2023/08/20 02:36:34;;;;;;;11.30;6.50;;;;;;;22.96;100.00;101048.45;106389;1257;77276;-84
2023/08/20 02:39:24;;;;;;;10.70;7.60;;;;;;;23.04;100.00;101045.64;106467;1253;71694;-87
2023/08/20 02:42:13;;;;;;;13.50;8.10;;;;;;;23.07;100.00;101042.33;106381;1256;74946;-89
2023/08/20 02:45:02;;;;;;;12.40;8.30;;;;;;;23.07;100.00;101042.23;106339;1251;62616;-88
2023/08/20 02:47:51;;;;;;;12.20;8.10;;;;;;;23.15;100.00;101047.44;106314;1256;60792;-84
2023/08/20 02:50:40;;;;;;;13.50;8.50;;;;;;;23.08;100.00;101045.36;106264;1253;77626;-89
2023/08/20 02:53:28;;;;;;;11.80;8.60;;;;;;;23.13;100.00;101044.04;106502;1253;68158;-85
2023/08/20 02:56:17;;;;;;;13.20;8.50;;;;;;;23.15;100.00;101044.88;106394;1257;75390;-88
2023/08/20 02:59:06;;;;;;;11.30;6.60;;;;;;;23.16;100.00;101045.40;106271;1254;62416;-85
2023/08/20 03:01:54;;;;;;;12.70;6.90;;;;;;;23.14;100.00;101044.39;106235;1259;60101;-85
2023/08/20 03:04:43;;;;;;;9.90;7.10;;;;;;;23.24;100.00;101044.34;106389;1257;75894;-85
2023/08/20 03:07:32;;;;;;;12.90;8.10;;;;;;;23.14;100.00;101041.33;106275;1253;72265;-88
2023/08/20 03:10:21;;;;;;;13.90;9.40;;;;;;;23.07;100.00;101038.58;106330;1255;72707;-85
2023/08/20 03:13:10;;;;;;;16.20;9.70;;;;;;;23.25;100.00;101040.48;106405;1253;62982;-84
2023/08/20 03:15:59;;;;;;;12.50;9.30;;;;;;;23.37;100.00;101039.02;106270;1253;62263;-88
2023/08/20 03:18:48;;;;;;;16.30;9.50;;;;;;;23.51;100.00;101036.71;106406;1253;76993;-88
2023/08/20 03:21:36;;;;;;;14.80;9.70;;;;;;;23.60;100.00;101034.37;106541;1253;70617;-88
2023/08/20 03:24:25;;;;;;;17.00;9.60;;;;;;;23.70;100.00;101034.16;106544;1253;72655;-88
2023/08/20 03:27:14;;;;;;;15.00;10.00;;;;;;;23.83;100.00;101031.46;106549;1251;65494;-84
2023/08/20 03:30:03;;;;;;;13.90;9.90;;;;;;;23.99;100.00;101031.66;106319;1253;61162;-89
2023/08/20 03:32:52;;;;;;;15.80;10.40;;;;;;;24.15;100.00;101027.14;106386;1253;77771;-84
2023/08/20 03:35:45;;;;;;;14.40;10.60;;;;;;;24.23;100.00;101029.60;106328;1252;67490;-88
2023/08/20 03:38:34;;;;;;;14.80;10.70;;;;;;;24.32;100.00;101029.20;106471;1256;74815;-88
2023/08/20 03:41:22;;;;;;;14.20;10.10;;;;;;;24.38;100.00;101032.85;106258;1253;65646;-88
2023/08/20 03:44:11;;;;;;;11.90;9.40;;;;;;;24.45;100.00;101030.65;106295;1254;60635;-84
2023/08/20 03:47:00;;;;;;;15.70;11.00;;;;;;;24.52;100.00;101032.14;106251;1256;74317;-88
2023/08/20 03:49:49;;;;;;;15.60;10.80;;;;;;;24.65;100.00;101034.14;106408;1251;71986;-84
2023/08/20 03:52:39;;;;;;;15.30;11.20;;;;;;;24.75;100.00;101032.07;106617;1256;65214;-88
2023/08/20 03:55:29;;;;;;;20.60;11.50;;;;;;;24.92;100.00;101030.31;106533;1253;62664;-84
2023/08/20 03:58:17;;;;;;;17.60;11.60;;;;;;;25.16;100.00;101030.17;106538;1257;60526;-85
2023/08/20 04:01:06;;;;;;;17.60;11.40;;;;;;;25.40;100.00;101028.48;106566;1252;63647;-85
2023/08/20 04:03:55;;;;;;;19.20;11.30;;;;;;;25.71;100.00;101026.98;106457;1256;60430;-88
2023/08/20 04:06:44;;;;;;;14.10;11.00;;;;;;;25.98;100.00;101029.77;106449;1256;66146;-88
2023/08/20 04:09:33;;;;;;;16.00;10.20;;;;;;;26.15;100.00;101031.21;106345;1254;61035;-88
2023/08/20 04:12:22;;;;;;;18.00;11.20;;;;;;;26.33;100.00;101035.05;106214;1253;60451;-88
2023/08/20 04:15:11;;;;;;;17.20;10.90;;;;;;;26.50;100.00;101035.98;106186;1253;67312;-87
2023/08/20 04:18:00;;;;;;;13.70;10.90;;;;;;;26.67;100.00;101039.44;106422;1256;60561;-86
2023/08/20 04:20:50;;;;;;;18.20;11.20;;;;;;;26.75;100.00;101040.92;106426;1254;66526;-88
2023/08/20 04:23:41;;;;;;;15.80;10.70;;;;;;;26.92;100.00;101040.55;106398;1252;60521;-86
2023/08/20 04:26:30;;;;;;;14.50;10.60;;;;;;;27.06;100.00;101038.69;106465;1253;60549;-86
2023/08/20 04:29:19;;;;;;;17.50;12.20;;;;;;;27.21;100.00;101036.66;106421;1256;67620;-86
2023/08/20 04:32:07;;;;;;;14.60;10.30;;;;;;;27.43;100.00;101036.88;106299;1253;61786;-88
2023/08/20 04:34:56;;;;;;;16.90;10.80;;;;;;;27.58;100.00;101036.46;106111;1254;63756;-86
2023/08/20 04:37:45;;;;;;;16.10;11.00;;;;;;;27.63;100.00;101034.50;106494;1259;60582;-88
2023/08/20 04:40:34;;;;;;;16.20;10.70;;;;;;;27.75;100.00;101036.20;106443;1255;60452;-87
2023/08/20 04:43:23;;;;;;;14.30;10.40;;;;;;;27.90;100.00;101035.27;106317;1253;66320;-87
2023/08/20 04:46:12;;;;;;;13.50;10.00;;;;;;;28.10;100.00;101030.83;106540;1258;60779;-87
2023/08/20 04:49:01;;;;;;;12.70;9.90;;;;;;;28.21;100.00;101031.48;106477;1254;63757;-87
2023/08/20 04:51:50;;;;;;;16.40;10.40;;;;;;;28.26;100.00;101032.19;106216;1253;60447;-88
2023/08/20 04:54:38;;;;;;;12.20;10.20;;;;;;;28.45;100.00;101033.73;106315;1253;60501;-87
2023/08/20 04:57:27;;;;;;;18.40;10.30;;;;;;;28.57;100.00;101031.21;106345;1253;66170;-88
2023/08/20 05:00:16;;;;;;;13.80;10.40;;;;;;;28.71;100.00;101032.37;106259;1253;62167;-87
2023/08/20 05:03:12;;;;;;;13.10;10.50;;;;;;;28.87;100.00;101036.83;106188;1253;66312;-87
2023/08/20 05:06:02;;;;;;;14.50;10.00;;;;;;;29.01;100.00;101037.16;106192;1253;60374;-88
2023/08/20 05:08:50;;;;;;;17.00;9.30;;;;;;;29.16;100.00;101035.92;106321;1253;60560;-87
2023/08/20 05:11:42;;;;;;;15.30;10.10;;;;;;;29.37;100.00;101038.21;106268;1253;67409;-87
2023/08/20 05:14:31;;;;;;;13.80;9.20;;;;;;;29.56;100.00;101035.97;106132;1253;60565;-87
2023/08/20 05:17:20;;;;;;;12.50;9.10;;;;;;;29.69;100.00;101027.27;106515;1254;65244;-88
2023/08/20 05:20:10;;;;;;;16.00;10.10;;;;;;;29.85;100.00;101024.84;106371;1257;60552;-87
2023/08/20 05:22:59;;;;;;;15.40;9.10;;;;;;;29.94;100.00;101024.55;106341;1253;59444;-88
2023/08/20 05:25:48;;;;;;;15.90;9.50;;;;;;;30.10;100.00;101024.83;106285;1253;75653;-87
2023/08/20 05:28:41;;;;;;;13.40;8.80;;;;;;;30.28;100.00;101018.11;106347;1259;60777;-87
2023/08/20 05:31:29;;;;;;;12.10;9.00;;;;;;;30.50;100.00;101017.55;106351;1257;64684;-87
2023/08/20 05:34:18;;;;;;;13.10;9.20;;;;;;;30.65;100.00;101017.63;106322;1253;60472;-88
2023/08/20 05:37:07;;;;;;;10.90;8.80;;;;;;;30.71;100.00;101017.07;106403;1251;60585;-88
2023/08/20 05:39:56;;;;;;;15.90;8.90;;;;;;;30.81;100.00;101013.20;106373;1253;64273;-88
2023/08/20 05:42:45;;;;;;;12.70;8.90;;;;;;;30.98;100.00;101010.45;106303;1251;61848;-88
2023/08/20 05:45:33;;;;;;;13.50;8.30;;;;;;;31.06;100.00;101009.63;106304;1251;63731;-89
2023/08/20 05:48:22;;;;;;;10.70;8.00;;;;;;;31.12;100.00;101007.59;106365;1253;60496;-88
2023/08/20 05:51:12;;;;;;;15.80;8.80;;;;;;;31.24;100.00;101007.40;106390;1251;60611;-89
2023/08/20 05:54:01;;;;;;;12.80;8.30;;;;;;;31.31;100.00;101007.92;106314;1258;66904;-90
2023/08/20 05:56:50;;;;;;;11.40;8.10;;;;;;;31.47;100.00;101005.23;106340;1253;60559;-88
2023/08/20 05:59:39;;;;;;;12.20;8.70;;;;;;;31.59;100.00;101005.77;106464;1253;65734;-90
2023/08/20 06:02:27;;;;;;;10.90;7.70;;;;;;;31.72;100.00;101005.20;106409;1257;60359;-87
2023/08/20 06:05:16;;;;;;;11.80;7.80;;;;;;;31.86;100.00;101001.35;106843;1251;60354;-88
2023/08/20 06:08:06;;;;;;;12.00;7.20;;;;;;;32.02;100.00;100999.50;107022;1256;65019;-88
2023/08/20 06:10:54;;;;;;;11.80;7.30;;;;;;;32.25;100.00;100999.89;106590;1250;60494;-87
2023/08/20 06:13:43;;;;;;;14.50;7.50;;;;;;;32.51;100.00;101000.19;106403;1257;65098;-87
2023/08/20 06:16:32;;;;;;;16.20;8.90;;;;;;;32.80;100.00;101000.09;106242;1253;60293;-88
2023/08/20 06:19:21;;;;;;;11.70;7.90;;;;;;;33.12;99.93;101001.63;106633;1251;60585;-87
2023/08/20 06:22:10;;;;;;;12.90;8.30;;;;;;;33.35;99.93;101004.60;106489;1257;66025;-88
2023/08/20 06:24:58;;;;;;;14.10;7.70;;;;;;;33.61;99.55;101005.44;106343;1251;71114;-87
2023/08/20 06:27:47;;;;;;;12.60;7.30;;;;;;;33.83;98.00;101001.83;106657;1256;64728;-88
2023/08/20 06:30:36;;;;;;;19.40;8.10;;;;;;;34.06;94.12;101000.42;106788;1252;60479;-88
2023/08/20 06:33:25;;;;;;;11.30;7.60;;;;;;;34.34;89.20;101002.69;106779;1251;60485;-88
2023/08/20 06:36:13;;;;;;;10.10;6.90;;;;;;;34.56;86.59;100997.14;106443;1256;64908;-87
2023/08/20 06:39:02;;;;;;;14.00;6.90;;;;;;;34.78;83.65;100999.04;106563;1252;62040;-87
2023/08/20 06:41:51;;;;;;;11.00;7.80;;;;;;;34.99;79.05;100997.42;106545;1251;65606;-88
2023/08/20 21:48:56;;;;;;;10.40;7.70;;;;;;;26.15;100.00;100748.36;106320;1256;64910;-89
2023/08/20 21:51:44;;;;;;;12.00;8.00;;;;;;;26.10;100.00;100751.17;106277;1256;61494;-88
2023/08/20 21:54:33;;;;;;;9.60;6.80;;;;;;;26.08;100.00;100747.93;106251;1253;62445;-83
2023/08/20 21:57:22;;;;;;;10.10;6.60;;;;;;;26.01;100.00;100748.23;106402;1252;60481;-84
2023/08/20 22:00:17;;;;;;;9.90;7.30;;;;;;;26.07;100.00;100750.97;106194;1253;60443;-84
2023/08/20 22:03:05;;;;;;;11.10;7.10;;;;;;;25.98;100.00;100750.02;106369;1253;66020;-89
2023/08/20 22:05:54;;;;;;;12.30;7.10;;;;;;;25.90;100.00;100745.42;106456;1256;60504;-88
2023/08/20 22:08:43;;;;;;;11.00;7.90;;;;;;;25.80;100.00;100745.89;106387;1257;64448;-84
2023/08/20 22:11:32;;;;;;;10.40;7.50;;;;;;;25.73;100.00;100742.98;106492;1253;60560;-89
2023/08/20 22:14:21;;;;;;;9.60;7.40;;;;;;;25.73;100.00;100742.09;106356;1253;59258;-84
2023/08/20 22:17:09;;;;;;;15.90;8.20;;;;;;;25.77;100.00;100743.93;106398;1257;67574;-84
2023/08/20 22:19:58;;;;;;;13.20;8.10;;;;;;;25.76;100.00;100737.67;106576;1257;62374;-88
2023/08/20 22:22:47;;;;;;;10.30;7.50;;;;;;;25.77;100.00;100735.75;106319;1259;64805;-83
2023/08/20 22:25:35;;;;;;;15.50;7.40;;;;;;;25.70;100.00;100736.55;106152;1253;60522;-89
2023/08/20 22:28:24;;;;;;;10.60;7.10;;;;;;;25.66;100.00;100736.88;106120;1253;60597;-88
2023/08/20 22:31:13;;;;;;;11.60;7.30;;;;;;;25.57;100.00;100739.61;106268;1257;67463;-88
2023/08/20 22:34:01;;;;;;;10.50;7.80;;;;;;;25.49;100.00;100740.75;106230;1253;60933;-83
2023/08/20 22:36:50;;;;;;;11.10;8.00;;;;;;;25.45;100.00;100743.31;106276;1253;66207;-83
2023/08/20 22:39:39;;;;;;;11.70;8.10;;;;;;;25.45;100.00;100742.42;106333;1251;60507;-83
2023/08/20 22:42:27;;;;;;;13.10;8.40;;;;;;;25.46;100.00;100738.61;106416;1251;60357;-84
2023/08/20 22:45:16;;;;;;;10.90;8.30;;;;;;;25.48;100.00;100737.77;106307;1254;64460;-88
2023/08/20 22:48:05;;;;;;;13.20;7.60;;;;;;;25.51;100.00;100739.91;106440;1252;62168;-88
2023/08/20 22:50:54;;;;;;;14.10;8.00;;;;;;;25.50;100.00;100741.42;106356;1253;66558;-83
2023/08/20 22:53:42;;;;;;;9.70;7.60;;;;;;;25.45;100.00;100742.91;106353;1256;60309;-87
2023/08/20 22:56:31;;;;;;;12.90;7.40;;;;;;;25.43;100.00;100743.11;106592;1253;60444;-88
2023/08/20 22:59:20;;;;;;;9.80;6.90;;;;;;;25.40;100.00;100744.19;106539;1251;67557;-89
2023/08/20 23:02:08;;;;;;;8.50;6.60;;;;;;;25.36;100.00;100742.76;106441;1253;62355;-84
2023/08/20 23:04:57;;;;;;;11.70;7.70;;;;;;;25.28;100.00;100743.82;106363;1254;65250;-84
2023/08/20 23:07:46;;;;;;;11.10;7.40;;;;;;;25.28;100.00;100740.39;106456;1254;60563;-88
2023/08/20 23:10:34;;;;;;;12.20;8.50;;;;;;;25.29;100.00;100736.27;106496;1253;60481;-89
2023/08/20 23:13:23;;;;;;;12.10;6.90;;;;;;;25.31;100.00;100735.16;106407;1253;66408;-89
2023/08/20 23:16:12;;;;;;;12.80;8.40;;;;;;;25.29;100.00;100732.10;106359;1256;60914;-87
2023/08/20 23:19:00;;;;;;;10.10;7.50;;;;;;;25.29;100.00;100730.74;106253;1254;63386;-84
2023/08/20 23:21:49;;;;;;;10.40;8.40;;;;;;;25.31;100.00;100728.95;106156;1254;60488;-83
2023/08/20 23:24:38;;;;;;;10.90;7.20;;;;;;;25.26;100.00;100730.77;106281;1254;60510;-84
2023/08/20 23:27:27;;;;;;;10.60;7.60;;;;;;;25.14;100.00;100729.98;106236;1254;66891;-88
2023/08/20 23:30:16;;;;;;;10.40;7.90;;;;;;;25.09;100.00;100731.33;106250;1254;71691;-89
2023/08/20 23:33:05;;;;;;;12.90;8.40;;;;;;;25.13;100.00;100736.91;106268;1256;71440;-84
2023/08/20 23:35:54;;;;;;;13.60;8.10;;;;;;;25.00;100.00;100730.67;106188;1254;65114;-84
2023/08/20 23:38:42;;;;;;;8.70;7.10;;;;;;;25.01;100.00;100729.88;106338;1253;62387;-84
2023/08/20 23:41:31;;;;;;;13.70;8.60;;;;;;;24.97;100.00;100727.81;106359;1256;73965;-89
2023/08/20 23:44:20;;;;;;;10.70;7.60;;;;;;;24.99;100.00;100727.31;106368;1255;68861;-85
2023/08/20 23:47:09;;;;;;;13.90;7.90;;;;;;;25.00;100.00;100729.33;106396;1254;72694;-89
2023/08/20 23:49:58;;;;;;;13.20;7.60;;;;;;;24.97;100.00;100721.73;106294;1258;60971;-89
2023/08/20 23:52:47;;;;;;;12.40;8.00;;;;;;;24.95;100.00;100719.31;106297;1257;63221;-89
2023/08/20 23:55:36;;;;;;;11.10;8.10;;;;;;;24.91;100.00;100724.36;106195;1257;67278;-89
2023/08/20 23:58:25;;;;;;;12.10;7.50;;;;;;;24.83;100.00;100726.60;106301;1254;72285;-89
